createdAt,value
2023-05-11T00:11:46.584Z,5.97
2023-05-11T00:14:13.836Z,8.30
2023-05-11T00:16:40.948Z,8.43
2023-05-11T00:19:08.039Z,9.02
2023-05-11T00:21:35.079Z,7.18
2023-05-11T00:24:04.628Z,7.88
2023-05-11T00:26:31.723Z,6.45
2023-05-11T00:29:01.569Z,8.02
2023-05-11T00:31:31.388Z,7.82
2023-05-11T00:33:58.903Z,8.57
2023-05-11T00:36:26.225Z,10.15
2023-05-11T00:38:56.457Z,11.65
2023-05-11T00:41:24.021Z,11.00
2023-05-11T00:43:51.338Z,12.73
2023-05-11T00:46:21.643Z,11.77
2023-05-11T00:48:48.995Z,10.00
2023-05-11T00:51:16.350Z,8.60
2023-05-11T00:53:43.610Z,8.65
2023-05-11T00:56:10.667Z,9.20
2023-05-11T00:58:39.489Z,11.35
2023-05-11T01:01:06.768Z,8.88
2023-05-11T01:03:35.595Z,8.55
2023-05-11T01:06:12.775Z,8.90
2023-05-11T01:08:42.629Z,9.43
2023-05-11T01:11:23.770Z,8.27
2023-05-11T01:14:06.285Z,11.43
2023-05-11T01:16:39.653Z,8.38
2023-05-11T01:19:30.971Z,9.00
2023-05-11T01:22:02.424Z,8.73
2023-05-11T01:24:49.340Z,9.10
2023-05-11T01:27:32.140Z,8.55
2023-05-11T01:29:59.437Z,7.90
2023-05-11T01:32:29.215Z,9.23
2023-05-11T01:35:19.065Z,10.00
2023-05-11T01:37:50.567Z,9.52
2023-05-11T01:40:22.236Z,9.35
2023-05-11T01:43:09.669Z,9.23
2023-05-11T01:45:41.949Z,9.27
2023-05-11T01:50:43.544Z,6.75
2023-05-11T01:53:16.132Z,8.02
2023-05-11T01:55:49.384Z,9.52
2023-05-11T01:58:18.834Z,9.55
2023-05-11T02:00:57.879Z,7.75
2023-05-11T02:03:45.738Z,7.95
2023-05-11T02:06:22.084Z,7.65
2023-05-11T02:09:23.076Z,7.55
2023-05-11T02:11:56.858Z,7.05
2023-05-11T02:14:41.344Z,7.70
2023-05-11T02:17:25.525Z,8.52
2023-05-11T02:20:10.133Z,10.05
2023-05-11T02:23:08.688Z,7.63
2023-05-11T02:25:44.928Z,8.13
2023-05-11T02:28:37.056Z,9.60
2023-05-11T02:31:19.429Z,10.25
2023-05-11T02:33:58.004Z,8.65
2023-05-11T02:36:47.076Z,7.63
2023-05-11T02:39:24.795Z,7.28
2023-05-11T02:42:23.236Z,6.97
2023-05-11T02:45:02.742Z,7.28
2023-05-11T02:47:54.248Z,6.35
2023-05-11T02:50:31.681Z,10.88
2023-05-11T02:53:12.137Z,11.82
2023-05-11T02:55:46.723Z,9.82
2023-05-11T02:59:24.170Z,9.23
2023-05-11T03:01:53.157Z,8.63
2023-05-11T03:04:38.854Z,8.82
2023-05-11T03:07:12.238Z,8.45
2023-05-11T03:09:44.069Z,9.00
2023-05-11T03:12:36.148Z,10.85
2023-05-11T03:22:51.617Z,9.07
2023-05-11T03:25:59.656Z,9.60
2023-05-11T03:29:09.360Z,8.10
2023-05-11T03:32:39.758Z,7.80
2023-05-11T03:47:14.752Z,6.72
2023-05-11T03:49:53.867Z,8.43
2023-05-11T03:56:23.986Z,7.13
2023-05-11T04:00:17.037Z,6.88
2023-05-11T04:11:38.605Z,5.57
2023-05-11T04:22:10.653Z,7.00
2023-05-11T04:29:42.647Z,6.03
2023-05-11T04:36:20.383Z,6.03
2023-05-11T04:46:30.535Z,4.90
2023-05-11T04:49:53.379Z,7.07
2023-05-11T04:56:46.206Z,6.20
2023-05-11T05:00:22.031Z,6.75
2023-05-11T05:06:31.251Z,4.72
2023-05-11T05:13:17.000Z,6.78
2023-05-11T05:16:00.506Z,7.00
2023-05-11T05:18:40.974Z,6.45
2023-05-11T05:21:08.168Z,6.20
2023-05-11T05:23:35.318Z,8.13
2023-05-11T05:26:02.527Z,6.38
2023-05-11T05:28:31.299Z,7.57
2023-05-11T05:30:59.144Z,6.78
2023-05-11T05:33:46.091Z,7.68
2023-05-11T05:36:19.631Z,7.35
2023-05-11T05:38:54.058Z,9.00
2023-05-11T05:41:23.999Z,7.28
2023-05-11T05:50:46.926Z,5.70
2023-05-11T05:57:19.720Z,5.43
2023-05-11T06:03:45.839Z,6.60
2023-05-11T06:06:13.223Z,5.35
2023-05-11T06:08:40.425Z,4.93
2023-05-11T06:12:33.692Z,5.38
2023-05-11T06:15:01.912Z,5.78
2023-05-11T06:17:32.429Z,4.72
2023-05-11T06:20:02.723Z,4.93
2023-05-11T06:23:04.701Z,4.32
2023-05-11T06:25:49.666Z,3.67
2023-05-11T06:28:39.172Z,3.40
2023-05-11T06:31:26.839Z,3.85
2023-05-11T06:34:10.650Z,2.70
2023-05-11T06:36:47.845Z,3.85
2023-05-11T06:39:19.018Z,3.95
2023-05-11T06:41:48.889Z,3.47
2023-05-11T06:44:46.455Z,4.28
2023-05-11T06:47:46.434Z,4.90
2023-05-11T06:50:36.083Z,3.90
2023-05-11T06:53:36.143Z,4.22
2023-05-11T06:56:14.738Z,5.10
2023-05-11T06:58:58.832Z,4.13
2023-05-11T07:01:35.199Z,4.97
2023-05-11T07:04:11.953Z,5.65
2023-05-11T07:06:49.559Z,5.10
2023-05-11T07:09:30.682Z,7.03
2023-05-11T07:12:02.770Z,5.80
2023-05-11T07:15:05.901Z,5.45
2023-05-11T07:18:02.075Z,6.13
2023-05-11T07:20:37.315Z,4.60
2023-05-11T07:23:42.467Z,5.22
2023-05-11T07:26:37.456Z,6.03
2023-05-11T07:32:26.788Z,5.93
2023-05-11T07:36:06.498Z,5.65
2023-05-11T07:39:20.340Z,5.63
2023-05-11T07:42:25.988Z,7.10
2023-05-11T07:45:35.872Z,7.97
2023-05-11T07:51:33.529Z,15.23
2023-05-11T07:54:07.489Z,11.70
2023-05-11T07:58:13.409Z,12.40
2023-05-11T08:00:30.939Z,12.30
2023-05-11T08:03:08.560Z,13.77
2023-05-11T08:05:39.427Z,15.48
2023-05-11T08:09:04.089Z,16.67
2023-05-11T08:12:10.077Z,19.23
2023-05-11T08:14:38.314Z,24.60
2023-05-11T08:17:49.919Z,22.58
2023-05-11T08:20:40.950Z,18.63
2023-05-11T08:26:15.666Z,19.42
2023-05-11T08:28:45.400Z,22.95
2023-05-11T08:31:15.096Z,22.00
2023-05-11T08:33:58.746Z,21.30
2023-05-11T08:36:51.043Z,22.63
2023-05-11T08:39:43.773Z,22.08
2023-05-11T08:42:19.231Z,20.45
2023-05-11T08:44:50.485Z,17.48
2023-05-11T08:47:23.281Z,20.20
2023-05-11T08:49:55.733Z,17.17
2023-05-11T08:52:37.200Z,17.17
2023-05-11T08:55:07.523Z,18.90
2023-05-11T08:57:35.538Z,18.60
2023-05-11T09:00:08.807Z,17.98
2023-05-11T09:02:38.915Z,19.63
2023-05-11T09:05:12.781Z,21.30
2023-05-11T09:07:53.491Z,20.40
2023-05-11T09:10:35.333Z,18.98
2023-05-11T09:13:02.661Z,16.67
2023-05-11T09:20:06.918Z,16.00
2023-05-11T09:22:49.254Z,13.10
2023-05-11T09:25:19.991Z,13.93
2023-05-11T09:27:50.103Z,15.10
2023-05-11T09:30:30.158Z,14.52
2023-05-11T09:32:59.864Z,13.93
2023-05-11T09:35:32.322Z,12.40
2023-05-11T09:38:07.958Z,12.63
2023-05-11T09:40:57.854Z,13.43
2023-05-11T09:43:33.656Z,15.55
2023-05-11T09:46:07.681Z,12.45
2023-05-11T09:49:57.976Z,10.75
2023-05-11T09:53:11.238Z,14.85
2023-05-11T09:59:32.172Z,11.57
2023-05-11T10:02:23.112Z,12.27
2023-05-11T10:05:03.281Z,12.68
2023-05-11T10:07:57.152Z,11.95
2023-05-11T10:11:35.263Z,12.20
2023-05-11T10:14:19.607Z,13.00
2023-05-11T10:16:49.227Z,12.40
2023-05-11T10:19:19.758Z,9.95
2023-05-11T10:22:10.361Z,9.77
2023-05-11T10:24:44.360Z,10.80
2023-05-11T10:27:34.398Z,10.05
2023-05-11T10:30:41.275Z,12.10
2023-05-11T10:33:58.754Z,11.27
2023-05-11T10:36:31.029Z,10.13
2023-05-11T10:43:01.735Z,9.88
2023-05-11T10:45:57.914Z,10.32
2023-05-11T10:49:16.544Z,13.15
2023-05-11T11:01:15.071Z,9.23
2023-05-11T11:04:03.110Z,7.20
2023-05-11T11:06:32.109Z,9.77
2023-05-11T11:09:07.805Z,7.28
2023-05-11T11:11:50.355Z,7.53
2023-05-11T11:14:19.358Z,7.82
2023-05-11T11:17:18.883Z,7.93
2023-05-11T11:19:46.382Z,6.75
2023-05-11T11:22:35.022Z,9.98
2023-05-11T11:25:09.846Z,13.75
2023-05-11T11:27:41.667Z,11.40
2023-05-11T11:30:31.056Z,16.02
2023-05-11T11:33:13.501Z,12.30
2023-05-11T11:35:52.536Z,14.77
2023-05-11T11:38:41.131Z,15.37
2023-05-11T11:41:30.619Z,11.23
2023-05-11T11:47:16.622Z,15.77
2023-05-11T11:49:49.450Z,13.90
2023-05-11T11:53:01.901Z,13.45
2023-05-11T11:56:22.828Z,16.05
2023-05-11T11:59:38.625Z,13.02
2023-05-11T12:05:30.515Z,12.60
2023-05-11T12:12:01.715Z,12.82
2023-05-11T12:15:44.299Z,15.30
2023-05-11T12:19:51.126Z,11.18
2023-05-11T12:22:44.797Z,10.60
2023-05-11T12:25:25.221Z,12.40
2023-05-11T12:28:06.184Z,11.30
2023-05-11T12:31:09.136Z,13.98
2023-05-11T12:33:50.669Z,14.75
2023-05-11T12:36:30.797Z,16.30
2023-05-11T12:38:58.022Z,14.18
2023-05-11T12:42:07.003Z,13.32
2023-05-11T12:44:41.203Z,12.60
2023-05-11T12:47:11.585Z,12.17
2023-05-11T12:50:29.953Z,14.02
2023-05-11T12:53:39.223Z,15.00
2023-05-11T12:56:09.343Z,14.93
2023-05-11T12:58:58.041Z,15.93
2023-05-11T13:01:28.371Z,14.50
2023-05-11T13:03:55.714Z,15.13
2023-05-11T13:07:00.000Z,14.85
2023-05-11T13:11:07.813Z,15.48
2023-05-11T13:13:35.507Z,16.05
2023-05-11T13:16:44.705Z,16.20
2023-05-11T13:19:12.526Z,15.93
2023-05-11T13:22:24.080Z,16.38
2023-05-11T13:25:37.850Z,12.45
2023-05-11T13:28:05.126Z,13.70
2023-05-11T13:30:34.741Z,14.32
2023-05-11T13:33:22.326Z,13.57
2023-05-11T13:35:49.524Z,12.93
2023-05-11T13:38:19.477Z,13.30
2023-05-11T13:40:46.791Z,13.50
2023-05-11T13:43:16.131Z,11.98
2023-05-11T13:45:43.539Z,13.30
2023-05-11T13:48:11.089Z,12.55
2023-05-11T13:50:38.511Z,12.10
2023-05-11T13:53:16.721Z,11.43
2023-05-11T13:59:37.695Z,12.07
2023-05-11T14:06:04.952Z,10.85
2023-05-11T14:08:34.425Z,12.07
2023-05-11T14:11:01.698Z,10.60
2023-05-11T14:13:31.771Z,13.05
2023-05-11T14:16:01.814Z,11.02
2023-05-11T14:18:31.947Z,10.75
2023-05-11T14:21:00.923Z,12.55
2023-05-11T14:23:28.397Z,9.98
2023-05-11T14:25:56.173Z,10.70
2023-05-11T14:28:24.049Z,9.20
2023-05-11T14:30:51.369Z,8.45
2023-05-11T14:33:18.535Z,7.88
2023-05-11T14:35:47.491Z,10.35
2023-05-11T14:38:14.580Z,7.68
2023-05-11T14:40:41.963Z,9.75
2023-05-11T14:43:08.940Z,6.63
2023-05-11T14:45:36.029Z,6.05
2023-05-11T14:48:04.234Z,7.72
2023-05-11T14:50:31.655Z,5.40
2023-05-11T14:52:59.138Z,7.15
2023-05-11T14:55:26.548Z,6.40
2023-05-11T14:57:53.572Z,9.80
2023-05-11T15:00:24.368Z,5.03
2023-05-11T15:02:52.366Z,4.15
2023-05-11T15:05:21.745Z,4.93
2023-05-11T15:07:49.340Z,4.50
2023-05-11T15:10:58.402Z,4.38
2023-05-11T15:13:25.642Z,4.35
2023-05-11T15:15:53.043Z,4.72
2023-05-11T15:18:20.318Z,4.25
2023-05-11T15:20:47.506Z,2.95
2023-05-11T15:23:17.814Z,3.47
2023-05-11T15:25:45.523Z,3.60
2023-05-11T15:28:12.896Z,1.73
2023-05-11T15:30:41.719Z,2.45
2023-05-11T15:33:10.123Z,2.42
2023-05-11T15:35:37.576Z,2.33
2023-05-11T15:38:05.464Z,3.35
2023-05-11T15:40:32.586Z,3.10
2023-05-11T15:43:00.551Z,4.68
2023-05-11T15:45:27.960Z,5.13
2023-05-11T15:47:55.329Z,3.40
2023-05-11T15:50:22.864Z,3.50
2023-05-11T15:52:50.075Z,3.38
2023-05-11T15:55:17.395Z,3.10
2023-05-11T15:57:44.509Z,2.97
2023-05-11T16:00:12.833Z,3.40
2023-05-11T16:02:48.283Z,4.20
2023-05-11T16:05:18.618Z,3.08
2023-05-11T16:07:45.976Z,3.35
2023-05-11T16:10:31.579Z,3.92
2023-05-11T16:12:59.211Z,2.88
2023-05-11T16:15:26.574Z,2.85
2023-05-11T16:17:55.044Z,2.55
2023-05-11T16:20:22.290Z,3.17
2023-05-11T16:22:49.754Z,3.30
2023-05-11T16:25:27.762Z,2.65
2023-05-11T16:27:54.990Z,3.13
2023-05-11T16:30:25.271Z,3.25
2023-05-11T16:38:09.742Z,2.88
2023-05-11T16:40:39.716Z,2.22
2023-05-11T16:43:06.844Z,2.88
2023-05-11T16:45:33.888Z,2.15
2023-05-11T16:48:01.043Z,3.35
2023-05-11T16:50:34.380Z,3.08
2023-05-11T16:53:06.972Z,3.40
2023-05-11T16:55:33.996Z,2.72
2023-05-11T16:58:01.042Z,2.88
2023-05-11T17:00:28.779Z,3.67
2023-05-11T17:02:56.736Z,3.03
2023-05-11T17:05:35.558Z,4.23
2023-05-11T17:08:39.916Z,3.95
2023-05-11T17:11:25.905Z,2.92
2023-05-11T17:13:55.800Z,3.70
2023-05-11T17:16:50.166Z,2.75
2023-05-11T17:19:59.854Z,3.00
2023-05-11T17:22:29.847Z,3.47
2023-05-11T17:24:58.759Z,3.83
2023-05-11T17:27:26.018Z,3.17
2023-05-11T17:29:52.978Z,2.67
2023-05-11T17:32:20.282Z,2.75
2023-05-11T17:34:50.135Z,2.80
2023-05-11T17:37:30.449Z,3.08
2023-05-11T17:40:01.794Z,4.28
2023-05-11T17:42:31.528Z,2.63
2023-05-11T17:45:01.410Z,2.97
2023-05-11T17:47:31.716Z,2.97
2023-05-11T17:50:01.721Z,2.88
2023-05-11T17:52:34.183Z,3.35
2023-05-11T17:55:02.860Z,2.50
2023-05-11T17:57:33.380Z,4.38
2023-05-11T18:00:24.007Z,2.63
2023-05-11T18:07:44.137Z,2.97
2023-05-11T18:10:11.529Z,2.47
2023-05-11T18:12:38.667Z,3.88
2023-05-11T18:15:06.233Z,2.70
2023-05-11T18:17:33.392Z,2.97
2023-05-11T18:20:00.597Z,3.17
2023-05-11T18:22:29.319Z,3.42
2023-05-11T18:24:56.907Z,3.20
2023-05-11T18:27:24.025Z,3.63
2023-05-11T18:29:54.357Z,3.38
2023-05-11T18:32:24.206Z,4.40
2023-05-11T18:34:51.241Z,3.97
2023-05-11T18:37:18.590Z,3.40
2023-05-11T18:39:46.261Z,3.33
2023-05-11T18:42:13.791Z,3.38
2023-05-11T18:44:41.172Z,3.72
2023-05-11T18:47:08.528Z,3.53
2023-05-11T18:49:35.589Z,3.78
2023-05-11T18:52:05.637Z,3.78
2023-05-11T18:54:33.941Z,4.15
2023-05-11T18:57:01.243Z,4.68
2023-05-11T18:59:31.497Z,4.00
2023-05-11T19:02:01.324Z,4.00
2023-05-11T19:04:28.653Z,4.57
2023-05-11T19:06:55.868Z,3.55
2023-05-11T19:09:23.235Z,3.92
2023-05-11T19:11:50.240Z,4.00
2023-05-11T19:14:17.376Z,3.30
2023-05-11T19:16:44.777Z,3.67
2023-05-11T19:19:12.844Z,4.13
2023-05-11T19:21:42.389Z,4.10
2023-05-11T19:24:10.452Z,4.80
2023-05-11T19:26:43.846Z,3.00
2023-05-11T19:29:16.936Z,3.38
2023-05-11T19:31:44.355Z,3.60
2023-05-11T19:34:11.682Z,3.85
2023-05-11T19:37:11.459Z,4.47
2023-05-11T19:39:38.708Z,3.75
2023-05-11T19:42:09.039Z,4.00
2023-05-11T19:44:43.503Z,3.45
2023-05-11T19:47:10.726Z,5.13
2023-05-11T19:49:39.934Z,4.30
2023-05-11T19:52:07.162Z,4.63
2023-05-11T19:54:34.549Z,4.82
2023-05-11T19:57:01.919Z,3.42
2023-05-11T19:59:34.237Z,4.85
2023-05-11T20:02:02.692Z,5.22
2023-05-11T20:04:30.141Z,5.05
2023-05-11T20:06:59.912Z,4.72
2023-05-11T20:09:28.425Z,5.32
2023-05-11T20:11:55.434Z,4.18
2023-05-11T20:14:23.205Z,5.10
2023-05-11T20:16:50.242Z,4.95
2023-05-11T20:19:17.248Z,3.35
2023-05-11T20:21:44.290Z,3.53
2023-05-11T20:24:11.462Z,4.35
2023-05-11T20:26:38.675Z,5.53
2023-05-11T20:29:07.780Z,4.13
2023-05-11T20:31:34.954Z,3.38
2023-05-11T20:36:31.828Z,4.18
2023-05-11T20:39:03.793Z,4.80
2023-05-11T20:41:31.053Z,3.72
2023-05-11T20:43:58.501Z,5.60
2023-05-11T20:46:27.065Z,3.78
2023-05-11T20:49:03.111Z,3.25
2023-05-11T20:51:35.224Z,4.00
2023-05-11T20:58:55.320Z,4.20
2023-05-11T21:02:39.927Z,2.73
2023-05-11T21:05:20.140Z,3.35
2023-05-11T21:07:53.361Z,4.13
2023-05-11T21:10:29.218Z,4.35
2023-05-11T21:13:07.936Z,3.35
2023-05-11T21:15:35.891Z,3.42
2023-05-11T21:18:03.469Z,3.88
2023-05-11T21:20:32.100Z,4.55
2023-05-11T21:22:59.325Z,4.13
2023-05-11T21:25:38.698Z,3.53
2023-05-11T21:28:09.230Z,3.30
2023-05-11T21:30:38.861Z,3.35
2023-05-11T21:33:06.275Z,3.00
2023-05-11T21:35:35.821Z,3.30
2023-05-11T21:38:05.915Z,3.85
2023-05-11T21:40:33.290Z,4.75
2023-05-11T21:43:00.750Z,3.35
2023-05-11T21:45:31.027Z,4.45
2023-05-11T21:48:00.096Z,4.35
2023-05-11T21:50:32.336Z,2.58
2023-05-11T21:53:24.107Z,2.58
2023-05-11T22:00:21.007Z,2.80
2023-05-11T22:03:27.060Z,2.50
2023-05-11T22:06:17.518Z,2.22
2023-05-11T22:16:37.862Z,2.80
2023-05-11T22:24:07.312Z,2.75
2023-05-11T22:27:02.792Z,3.00
2023-05-11T22:30:13.042Z,4.55
2023-05-11T22:33:25.258Z,4.47
2023-05-11T22:39:36.033Z,4.00
2023-05-11T22:42:38.003Z,3.53
2023-05-11T22:45:45.306Z,3.85
2023-05-11T22:48:53.988Z,3.58
2023-05-11T22:55:12.112Z,4.82
2023-05-11T22:57:55.102Z,5.05
2023-05-11T23:01:08.202Z,4.97
2023-05-11T23:03:55.189Z,4.30
2023-05-11T23:07:33.775Z,6.18
2023-05-11T23:10:11.205Z,4.40
2023-05-11T23:12:52.921Z,5.30
2023-05-11T23:15:21.570Z,7.50
2023-05-11T23:18:12.301Z,5.55
2023-05-11T23:21:03.327Z,5.78
2023-05-11T23:23:43.083Z,4.90
2023-05-11T23:26:10.694Z,5.32
2023-05-11T23:28:46.107Z,6.22
2023-05-11T23:31:15.501Z,6.30
2023-05-11T23:33:42.931Z,5.00
2023-05-11T23:36:14.373Z,4.63
2023-05-11T23:38:54.953Z,4.18
2023-05-11T23:41:33.532Z,5.03
2023-05-11T23:44:00.745Z,4.47
2023-05-11T23:46:34.106Z,5.68
2023-05-11T23:49:09.712Z,3.90
2023-05-11T23:51:38.314Z,5.03
2023-05-11T23:54:11.660Z,6.05
2023-05-11T23:56:39.200Z,4.35
2023-05-11T23:59:13.379Z,4.97
